Terminal Aerodrome Forecast
Issued by NWS Caribou, ME

Home | Current Version | Previous Version | Text Only | Print | Product List | Glossary On
Versions: 1 2 3 4 5 6 7 8 9 10 11 12 13 14
000
FTUS41 KCAR 231000 AAA
TAFBGR
TAF AMD
KBGR 231006Z 2310/2406 20005KT 6SM BR SCT050
     FM231500 20012KT P6SM SCT050 BKN200
     FM232000 20012G20KT 6SM SHRA VCTS SCT035CB BKN070 OVC120
      TEMPO 2320/2323 VRB20G45KT 2SM +TSRA OVC025CB
     FM240000 23010KT P6SM -SHRA OVC050=

USA.gov is the U.S. government's official web portal to all federal, state and local government web resources and services.